createdAt,value
2022-11-20T00:01:12.297Z,9.20
2022-11-20T00:03:39.109Z,9.20
2022-11-20T00:06:07.324Z,9.30
2022-11-20T00:08:34.336Z,9.40
2022-11-20T00:11:17.084Z,9.30
2022-11-20T00:13:44.804Z,9.30
2022-11-20T00:16:12.815Z,9.30
2022-11-20T00:18:39.716Z,9.40
2022-11-20T00:21:08.267Z,9.30
2022-11-20T00:23:35.670Z,9.40
2022-11-20T00:26:06.962Z,9.40
2022-11-20T00:28:33.981Z,9.40
2022-11-20T00:31:27.177Z,9.50
2022-11-20T00:33:54.043Z,9.20
2022-11-20T00:36:22.493Z,8.90
2022-11-20T00:38:53.005Z,8.90
2022-11-20T00:41:19.804Z,9.10
2022-11-20T00:43:46.552Z,9.20
2022-11-20T00:46:17.818Z,9.30
2022-11-20T00:48:44.884Z,9.20
2022-11-20T00:51:16.045Z,9.20
2022-11-20T00:53:42.903Z,9.10
2022-11-20T00:56:12.062Z,9.00
2022-11-20T00:58:40.132Z,9.00
2022-11-20T01:01:11.325Z,9.00
2022-11-20T01:03:45.414Z,9.10
2022-11-20T01:06:25.674Z,9.00
2022-11-20T01:08:53.929Z,9.10
2022-11-20T01:11:22.916Z,9.10
2022-11-20T01:13:50.435Z,8.90
2022-11-20T01:16:19.800Z,8.80
2022-11-20T01:18:47.968Z,8.60
2022-11-20T01:21:22.486Z,8.60
2022-11-20T01:23:49.676Z,9.00
2022-11-20T01:26:19.108Z,8.90
2022-11-20T01:28:46.643Z,9.00
2022-11-20T01:31:18.991Z,9.00
2022-11-20T01:33:46.691Z,8.90
2022-11-20T01:36:13.597Z,8.90
2022-11-20T01:38:40.386Z,9.00
2022-11-20T01:41:07.730Z,9.10
2022-11-20T01:43:34.726Z,9.10
2022-11-20T01:46:17.641Z,9.00
2022-11-20T01:48:50.029Z,9.00
2022-11-20T01:51:42.058Z,9.00
2022-11-20T01:54:18.069Z,8.70
2022-11-20T01:56:45.764Z,8.80
2022-11-20T01:59:13.898Z,8.80
2022-11-20T02:01:40.812Z,8.80
2022-11-20T02:04:08.380Z,8.80
2022-11-20T02:06:50.028Z,8.90
2022-11-20T02:09:17.220Z,8.80
2022-11-20T02:11:44.109Z,8.90
2022-11-20T02:14:10.912Z,8.80
2022-11-20T02:16:44.739Z,8.80
2022-11-20T02:19:31.079Z,9.00
2022-11-20T02:22:26.848Z,8.90
2022-11-20T02:24:53.685Z,8.90
2022-11-20T02:27:20.793Z,8.80
2022-11-20T02:30:04.821Z,8.80
2022-11-20T02:32:33.946Z,8.60
2022-11-20T02:35:20.933Z,8.60
2022-11-20T02:37:49.936Z,8.70
2022-11-20T02:40:16.830Z,8.80
2022-11-20T02:42:43.635Z,8.70
2022-11-20T02:45:10.805Z,8.70
2022-11-20T02:47:37.705Z,8.70
2022-11-20T02:50:05.214Z,8.80
2022-11-20T02:52:32.075Z,8.80
2022-11-20T02:54:58.894Z,8.90
2022-11-20T02:57:25.748Z,8.90
2022-11-20T02:59:52.508Z,8.80
2022-11-20T03:02:19.367Z,8.70
2022-11-20T03:04:46.165Z,8.80
2022-11-20T03:07:13.052Z,8.70
2022-11-20T03:09:39.815Z,8.70
2022-11-20T03:12:06.887Z,8.60
2022-11-20T03:14:33.788Z,8.80
2022-11-20T03:17:00.590Z,8.50
2022-11-20T03:19:27.513Z,8.60
2022-11-20T03:21:54.360Z,8.70
2022-11-20T03:24:21.201Z,8.70
2022-11-20T03:26:48.061Z,8.80
2022-11-20T03:29:14.904Z,8.80
2022-11-20T03:31:41.973Z,8.60
2022-11-20T03:34:10.158Z,8.50
2022-11-20T03:36:42.175Z,8.40
2022-11-20T03:39:09.419Z,8.50
2022-11-20T03:41:40.707Z,8.50
2022-11-20T03:44:09.667Z,8.50
2022-11-20T03:46:36.524Z,8.70
2022-11-20T03:49:03.449Z,8.60
2022-11-20T03:51:34.433Z,8.70
2022-11-20T03:54:02.676Z,8.60
2022-11-20T03:56:33.810Z,8.50
2022-11-20T03:59:00.644Z,8.70
2022-11-20T04:01:29.302Z,8.60
2022-11-20T04:03:56.708Z,8.70
2022-11-20T04:06:25.254Z,8.70
2022-11-20T04:08:53.981Z,8.70
2022-11-20T04:11:22.037Z,8.70
2022-11-20T04:13:53.995Z,8.50
2022-11-20T04:16:21.077Z,8.50
2022-11-20T04:18:47.931Z,8.70
2022-11-20T04:21:14.768Z,8.60
2022-11-20T04:23:41.516Z,8.60
2022-11-20T04:26:09.833Z,8.40
2022-11-20T04:28:36.880Z,8.50
2022-11-20T04:31:11.345Z,8.60
2022-11-20T04:33:38.303Z,8.50
2022-11-20T04:36:13.374Z,8.50
2022-11-20T04:38:40.421Z,8.30
2022-11-20T04:41:08.391Z,8.30
2022-11-20T04:43:35.267Z,8.40
2022-11-20T04:46:02.173Z,8.50
2022-11-20T04:48:29.477Z,8.50
2022-11-20T04:50:56.427Z,8.40
2022-11-20T04:53:23.352Z,8.40
2022-11-20T04:55:50.257Z,8.40
2022-11-20T04:58:17.247Z,8.30
2022-11-20T05:00:44.152Z,8.40
2022-11-20T05:03:10.994Z,8.30
2022-11-20T05:05:37.841Z,8.40
2022-11-20T05:08:04.988Z,8.40
2022-11-20T05:10:31.803Z,8.50
2022-11-20T05:12:58.629Z,8.50
2022-11-20T05:15:25.642Z,8.60
2022-11-20T05:17:52.968Z,8.50
2022-11-20T05:20:19.953Z,8.40
2022-11-20T05:22:46.890Z,8.40
2022-11-20T05:25:13.710Z,8.30
2022-11-20T05:27:40.472Z,8.30
2022-11-20T05:30:07.903Z,8.10
2022-11-20T05:32:35.021Z,8.10
2022-11-20T05:35:01.763Z,8.20
2022-11-20T05:37:28.487Z,8.10
2022-11-20T05:39:55.485Z,8.20
2022-11-20T05:42:31.102Z,8.10
2022-11-20T05:45:04.991Z,7.90
2022-11-20T05:47:35.481Z,7.70
2022-11-20T05:50:02.689Z,7.80
2022-11-20T05:52:30.315Z,8.00
2022-11-20T05:54:57.424Z,8.00
2022-11-20T05:57:24.186Z,8.00
2022-11-20T05:59:51.055Z,8.00
2022-11-20T06:02:17.944Z,8.10
2022-11-20T06:04:44.819Z,7.90
2022-11-20T06:07:11.617Z,7.90
2022-11-20T06:09:38.495Z,7.90
2022-11-20T06:12:05.793Z,7.80
2022-11-20T06:14:32.595Z,7.90
2022-11-20T06:16:59.499Z,8.00
2022-11-20T06:19:26.510Z,8.10
2022-11-20T06:21:53.352Z,8.10
2022-11-20T06:24:20.150Z,7.90
2022-11-20T06:26:46.944Z,8.00
2022-11-20T06:29:13.809Z,7.90
2022-11-20T06:31:40.728Z,8.00
2022-11-20T06:34:07.815Z,8.10
2022-11-20T06:36:34.741Z,8.10
2022-11-20T06:39:01.880Z,8.10
2022-11-20T06:41:29.092Z,8.10
2022-11-20T06:43:55.891Z,8.20
2022-11-20T06:46:23.178Z,8.30
2022-11-20T06:48:50.539Z,8.20
2022-11-20T06:51:17.439Z,8.20
2022-11-20T06:53:44.225Z,8.20
2022-11-20T06:56:11.054Z,8.20
2022-11-20T06:58:38.027Z,8.30
2022-11-20T07:01:10.307Z,8.30
2022-11-20T07:03:37.448Z,8.40
2022-11-20T07:06:04.561Z,8.30
2022-11-20T07:08:31.497Z,8.30
2022-11-20T07:10:59.699Z,8.20
2022-11-20T07:13:27.256Z,8.30
2022-11-20T07:15:54.150Z,8.30
2022-11-20T07:18:21.074Z,8.30
2022-11-20T07:20:47.878Z,8.30
2022-11-20T07:23:14.699Z,8.30
2022-11-20T07:25:41.521Z,8.40
2022-11-20T07:28:08.412Z,8.60
2022-11-20T07:30:35.251Z,8.60
2022-11-20T07:33:02.052Z,8.60
2022-11-20T07:35:28.894Z,8.50
2022-11-20T07:37:55.791Z,8.50
2022-11-20T07:40:22.589Z,8.60
2022-11-20T07:42:53.409Z,8.60
2022-11-20T07:45:20.714Z,8.60
2022-11-20T07:47:47.462Z,8.60
2022-11-20T07:50:14.651Z,8.60
2022-11-20T07:52:41.508Z,8.30
2022-11-20T07:55:08.976Z,8.40
2022-11-20T07:57:35.813Z,8.40
2022-11-20T08:00:03.903Z,8.50
2022-11-20T08:02:30.655Z,8.60
2022-11-20T08:04:57.481Z,8.70
2022-11-20T08:07:24.384Z,8.70
2022-11-20T08:09:51.282Z,8.70
2022-11-20T08:12:38.262Z,8.60
2022-11-20T08:15:11.311Z,8.60
2022-11-20T08:17:39.914Z,8.80
2022-11-20T08:20:07.091Z,8.80
2022-11-20T08:22:33.926Z,8.80
2022-11-20T08:25:00.695Z,8.70
2022-11-20T08:27:27.478Z,8.80
2022-11-20T08:29:54.241Z,8.80
2022-11-20T08:32:21.014Z,8.80
2022-11-20T08:34:47.870Z,8.80
2022-11-20T08:37:14.660Z,8.80
2022-11-20T08:39:42.855Z,8.70
2022-11-20T08:42:09.811Z,8.70
2022-11-20T08:44:36.614Z,8.70
2022-11-20T08:47:03.348Z,8.80
2022-11-20T08:49:30.129Z,8.60
2022-11-20T08:51:57.883Z,8.60
2022-11-20T08:54:24.685Z,8.70
2022-11-20T08:56:51.587Z,8.60
2022-11-20T08:59:36.695Z,8.70
2022-11-20T09:02:05.220Z,8.80
2022-11-20T09:04:32.021Z,8.70
2022-11-20T09:07:00.838Z,8.70
2022-11-20T09:09:27.652Z,8.90
2022-11-20T09:11:54.517Z,8.80
2022-11-20T09:14:22.373Z,8.90
2022-11-20T09:16:49.255Z,8.70
2022-11-20T09:22:02.964Z,8.90
2022-11-20T09:24:29.738Z,8.80
2022-11-20T09:26:56.547Z,8.70
2022-11-20T09:29:23.663Z,8.70
2022-11-20T09:31:50.685Z,8.70
2022-11-20T09:34:17.579Z,8.90
2022-11-20T09:36:44.417Z,8.90
2022-11-20T09:42:58.205Z,8.90
2022-11-20T09:45:45.917Z,8.70
2022-11-20T09:48:57.087Z,8.90
2022-11-20T09:51:29.785Z,9.10
2022-11-20T09:54:19.136Z,8.90
2022-11-20T09:57:02.670Z,9.00
2022-11-20T09:59:42.112Z,8.80
2022-11-20T10:02:23.592Z,8.90
2022-11-20T10:04:54.932Z,9.10
2022-11-20T10:07:39.438Z,9.20
2022-11-20T10:10:06.627Z,9.10
2022-11-20T10:12:42.202Z,8.80
2022-11-20T10:15:37.982Z,8.80
2022-11-20T10:18:13.875Z,9.10
2022-11-20T10:20:52.632Z,9.00
2022-11-20T10:23:48.558Z,8.90
2022-11-20T10:26:18.439Z,9.00
2022-11-20T10:29:13.275Z,9.00
2022-11-20T10:32:12.912Z,8.90
2022-11-20T10:34:44.895Z,8.80
2022-11-20T10:37:20.143Z,8.80
2022-11-20T10:40:14.429Z,8.90
2022-11-20T10:42:45.855Z,8.90
2022-11-20T10:45:44.897Z,8.80
2022-11-20T10:48:17.526Z,8.90
2022-11-20T10:51:15.003Z,8.90
2022-11-20T10:54:02.542Z,9.00
2022-11-20T10:56:46.861Z,8.80
2022-11-20T10:59:31.699Z,8.80
2022-11-20T11:02:01.614Z,9.00
2022-11-20T11:04:33.893Z,9.00
2022-11-20T11:07:14.704Z,9.00
2022-11-20T11:09:53.421Z,9.00
2022-11-20T11:12:21.405Z,9.20
2022-11-20T11:14:53.867Z,9.10
2022-11-20T11:17:28.014Z,9.10
2022-11-20T11:20:03.523Z,9.10
2022-11-20T11:22:34.862Z,9.20
2022-11-20T11:25:01.933Z,9.10
2022-11-20T11:27:28.786Z,9.10
2022-11-20T11:30:18.044Z,9.00
2022-11-20T11:32:46.097Z,9.20
2022-11-20T11:35:24.102Z,9.10
2022-11-20T11:37:51.997Z,8.90
2022-11-20T11:40:24.328Z,8.80
2022-11-20T11:42:55.322Z,8.80
2022-11-20T11:45:22.187Z,8.90
2022-11-20T11:47:49.383Z,9.10
2022-11-20T11:50:18.598Z,9.30
2022-11-20T11:52:52.660Z,9.50
2022-11-20T11:55:43.018Z,9.50
2022-11-20T11:58:15.773Z,9.40
2022-11-20T12:00:47.035Z,9.30
2022-11-20T12:03:42.058Z,9.30
2022-11-20T12:06:14.005Z,9.40
2022-11-20T12:08:47.006Z,9.50
2022-11-20T12:11:14.750Z,9.50
2022-11-20T12:13:44.021Z,9.40
2022-11-20T12:16:13.923Z,9.40
2022-11-20T12:18:41.260Z,9.40
2022-11-20T12:21:21.401Z,9.40
2022-11-20T12:24:06.609Z,9.50
2022-11-20T12:26:45.692Z,9.50
2022-11-20T12:29:50.025Z,9.40
2022-11-20T12:32:16.894Z,9.50
2022-11-20T12:34:46.808Z,9.40
2022-11-20T12:37:22.822Z,9.50
2022-11-20T12:39:52.411Z,9.60
2022-11-20T12:42:43.528Z,9.50
2022-11-20T12:45:35.255Z,9.50
2022-11-20T12:48:02.073Z,9.50
2022-11-20T12:51:16.854Z,9.30
2022-11-20T12:54:28.987Z,9.20
2022-11-20T12:57:04.979Z,9.20
2022-11-20T12:59:53.537Z,9.20
2022-11-20T13:02:38.924Z,9.20
2022-11-20T13:05:35.140Z,9.10
2022-11-20T13:08:02.025Z,9.30
2022-11-20T13:10:36.846Z,9.30
2022-11-20T13:13:25.941Z,9.40
2022-11-20T13:16:14.544Z,9.20
2022-11-20T13:18:43.536Z,8.90
2022-11-20T13:21:21.531Z,8.50
2022-11-20T13:23:48.399Z,8.50
2022-11-20T13:26:25.531Z,8.60
2022-11-20T13:29:21.676Z,8.50
2022-11-20T13:31:48.670Z,8.90
2022-11-20T13:34:28.388Z,9.00
2022-11-20T13:36:55.656Z,9.00
2022-11-20T13:39:29.779Z,9.20
2022-11-20T13:42:01.418Z,9.10
2022-11-20T13:44:30.568Z,9.00
2022-11-20T13:46:57.435Z,8.90
2022-11-20T13:49:38.909Z,9.10
2022-11-20T13:52:32.850Z,9.20
2022-11-20T13:55:17.913Z,9.20
2022-11-20T13:58:00.997Z,9.30
2022-11-20T14:00:28.054Z,9.10
2022-11-20T14:02:54.877Z,8.80
2022-11-20T14:05:24.982Z,8.90
2022-11-20T14:07:52.329Z,8.90
2022-11-20T14:10:29.906Z,9.00
2022-11-20T14:12:58.552Z,8.90
2022-11-20T14:15:26.473Z,9.00
2022-11-20T14:17:53.332Z,8.90
2022-11-20T14:20:24.153Z,8.80
2022-11-20T14:22:51.746Z,8.80
2022-11-20T14:25:18.672Z,8.70
2022-11-20T14:27:48.980Z,8.70
2022-11-20T14:30:17.767Z,8.80
2022-11-20T14:32:45.012Z,8.80
2022-11-20T14:35:22.866Z,8.90
2022-11-20T14:37:49.688Z,8.90
2022-11-20T14:40:28.115Z,8.90
2022-11-20T14:42:55.121Z,8.90
2022-11-20T14:45:22.222Z,8.90
2022-11-20T14:47:49.225Z,8.80
2022-11-20T14:50:27.523Z,8.80
2022-11-20T14:52:55.992Z,8.90
2022-11-20T14:55:27.272Z,8.80
2022-11-20T14:58:01.655Z,8.70
2022-11-20T15:00:29.004Z,8.80
2022-11-20T15:02:56.011Z,8.70
2022-11-20T15:05:25.233Z,8.80
2022-11-20T15:08:05.126Z,8.70
2022-11-20T15:10:32.008Z,8.70
2022-11-20T15:13:08.378Z,8.60
2022-11-20T15:15:51.605Z,8.60
2022-11-20T15:18:20.897Z,8.50
2022-11-20T15:20:48.022Z,8.20
2022-11-20T15:23:21.294Z,8.20
2022-11-20T15:25:48.478Z,8.40
2022-11-20T15:28:28.802Z,8.50
2022-11-20T15:30:57.147Z,8.50
2022-11-20T15:33:24.041Z,8.60
2022-11-20T15:35:50.918Z,8.70
2022-11-20T15:38:17.740Z,8.60
2022-11-20T15:40:44.610Z,8.40
2022-11-20T15:43:13.739Z,8.50
2022-11-20T15:46:14.886Z,8.50
2022-11-20T15:48:47.862Z,8.70
2022-11-20T15:51:30.072Z,8.80
2022-11-20T15:53:57.170Z,8.70
2022-11-20T15:56:24.295Z,8.70
2022-11-20T15:58:51.136Z,8.70
2022-11-20T16:01:19.780Z,8.60
2022-11-20T16:03:46.672Z,8.70
2022-11-20T16:06:13.740Z,8.70
2022-11-20T16:08:40.638Z,8.80
2022-11-20T16:11:07.534Z,8.70
2022-11-20T16:13:53.687Z,8.70
2022-11-20T16:16:24.800Z,8.80
2022-11-20T16:18:51.729Z,8.80
2022-11-20T16:21:18.690Z,8.60
2022-11-20T16:23:45.582Z,8.70
2022-11-20T16:26:13.949Z,8.60
2022-11-20T16:28:41.042Z,8.70
2022-11-20T16:31:15.506Z,8.60
2022-11-20T16:33:42.436Z,8.60
2022-11-20T16:36:14.233Z,8.50
2022-11-20T16:38:42.099Z,8.70
2022-11-20T16:41:14.598Z,8.60
2022-11-20T16:43:48.467Z,8.60
2022-11-20T16:46:20.815Z,8.50
2022-11-20T16:49:01.653Z,8.50
2022-11-20T16:51:29.378Z,8.70
2022-11-20T16:53:56.592Z,8.50
2022-11-20T16:56:25.141Z,8.40
2022-11-20T16:58:53.437Z,8.40
2022-11-20T17:01:21.636Z,8.20
2022-11-20T17:03:55.210Z,8.10
2022-11-20T17:06:23.840Z,8.20
2022-11-20T17:08:50.704Z,8.30
2022-11-20T17:11:18.757Z,8.50
2022-11-20T17:13:45.820Z,8.60
2022-11-20T17:16:17.749Z,8.40
2022-11-20T17:18:44.885Z,8.40
2022-11-20T17:21:11.966Z,8.40
2022-11-20T17:23:40.298Z,8.50
2022-11-20T17:26:08.262Z,8.60
2022-11-20T17:28:35.412Z,8.60
2022-11-20T17:31:03.176Z,8.50
2022-11-20T17:33:30.143Z,8.50
2022-11-20T17:35:57.075Z,8.50
2022-11-20T17:38:24.099Z,8.50
2022-11-20T17:40:50.959Z,8.40
2022-11-20T17:43:17.963Z,8.50
2022-11-20T17:45:45.158Z,8.40
2022-11-20T17:48:12.539Z,8.50
2022-11-20T17:50:39.426Z,8.60
2022-11-20T17:53:07.553Z,8.10
2022-11-20T17:55:55.795Z,8.20
2022-11-20T17:58:22.865Z,8.30
2022-11-20T18:00:49.733Z,8.10
2022-11-20T18:03:16.605Z,8.20
2022-11-20T18:05:43.443Z,8.40
2022-11-20T18:08:10.323Z,8.60
2022-11-20T18:10:37.306Z,8.50
2022-11-20T18:13:04.134Z,8.40
2022-11-20T18:15:30.996Z,8.00
2022-11-20T18:17:57.885Z,7.90
2022-11-20T18:20:30.297Z,7.90
2022-11-20T18:23:00.161Z,7.80
2022-11-20T18:25:27.084Z,7.80
2022-11-20T18:27:53.897Z,7.90
2022-11-20T18:30:20.864Z,7.80
2022-11-20T18:32:47.728Z,8.10
2022-11-20T18:35:14.717Z,7.80
2022-11-20T18:37:41.543Z,7.70
2022-11-20T18:40:09.300Z,7.70
2022-11-20T18:42:55.581Z,7.70
2022-11-20T18:45:22.432Z,7.80
2022-11-20T18:47:49.335Z,8.00
2022-11-20T18:50:16.154Z,7.90
2022-11-20T18:52:44.783Z,7.70
2022-11-20T18:55:12.684Z,7.80
2022-11-20T18:57:39.618Z,7.90
2022-11-20T19:00:09.570Z,7.70
2022-11-20T19:05:23.956Z,8.00
2022-11-20T19:07:50.932Z,8.30
2022-11-20T19:10:20.280Z,8.20
2022-11-20T19:12:47.146Z,8.10
2022-11-20T19:15:13.962Z,8.10
2022-11-20T19:17:40.847Z,7.80
2022-11-20T19:20:08.288Z,7.70
2022-11-20T19:22:35.154Z,7.60
2022-11-20T19:25:01.936Z,7.60
2022-11-20T19:27:28.785Z,7.60
2022-11-20T19:30:02.991Z,7.60
2022-11-20T19:32:30.222Z,7.70
2022-11-20T19:34:57.052Z,7.60
2022-11-20T19:37:25.261Z,7.40
2022-11-20T19:39:52.106Z,7.60
2022-11-20T19:42:18.974Z,7.50
2022-11-20T19:44:45.809Z,7.60
2022-11-20T19:47:14.683Z,7.90
2022-11-20T19:49:41.941Z,7.80
2022-11-20T19:52:11.896Z,7.80
2022-11-20T19:54:38.714Z,7.80
2022-11-20T19:57:05.667Z,7.90
2022-11-20T19:59:32.496Z,7.80
2022-11-20T20:01:59.543Z,8.00
2022-11-20T20:04:26.658Z,7.90
2022-11-20T20:06:53.468Z,7.70
2022-11-20T20:09:22.503Z,7.70
2022-11-20T20:11:49.626Z,7.70
2022-11-20T20:14:20.103Z,7.60
2022-11-20T20:16:46.982Z,7.40
2022-11-20T20:19:15.056Z,7.50
2022-11-20T20:21:41.860Z,7.40
2022-11-20T20:24:11.713Z,7.40
2022-11-20T20:26:38.564Z,7.20
2022-11-20T20:29:05.400Z,7.60
2022-11-20T20:31:33.387Z,7.40
2022-11-20T20:34:00.591Z,7.70
2022-11-20T20:36:27.490Z,7.80
2022-11-20T20:38:55.324Z,7.80
2022-11-20T20:41:22.760Z,7.80
2022-11-20T20:44:08.349Z,7.90
2022-11-20T20:46:35.260Z,7.80
2022-11-20T20:49:02.109Z,7.90
2022-11-20T20:51:28.946Z,8.00
2022-11-20T20:53:59.529Z,8.00
2022-11-20T20:56:26.541Z,8.10
2022-11-20T20:58:53.386Z,8.20
2022-11-20T21:01:20.401Z,8.10
2022-11-20T21:03:49.429Z,8.10
2022-11-20T21:06:16.254Z,8.10
2022-11-20T21:08:44.632Z,8.10
2022-11-20T21:11:15.981Z,8.20
2022-11-20T21:13:43.376Z,8.20
2022-11-20T21:16:10.821Z,8.10
2022-11-20T21:18:37.665Z,8.10
2022-11-20T21:21:24.283Z,8.10
2022-11-20T21:23:52.184Z,8.00
2022-11-20T21:26:19.267Z,7.90
2022-11-20T21:28:46.084Z,8.00
2022-11-20T21:31:22.239Z,8.00
2022-11-20T21:33:51.159Z,7.90
2022-11-20T21:36:19.408Z,7.80
2022-11-20T21:38:46.555Z,8.00
2022-11-20T21:41:13.749Z,8.00
2022-11-20T21:43:40.733Z,8.00
2022-11-20T21:46:08.858Z,7.70
2022-11-20T21:48:36.619Z,7.50
2022-11-20T21:51:07.216Z,7.60
2022-11-20T21:53:34.304Z,7.70
2022-11-20T21:56:01.352Z,7.80
2022-11-20T21:58:28.214Z,7.90
2022-11-20T22:00:55.117Z,8.00
2022-11-20T22:03:24.171Z,7.70
2022-11-20T22:05:57.453Z,7.90
2022-11-20T22:08:24.961Z,7.90
2022-11-20T22:11:02.216Z,8.00
2022-11-20T22:13:47.552Z,8.10
2022-11-20T22:16:14.482Z,7.90
2022-11-20T22:18:44.731Z,8.00
2022-11-20T22:21:11.656Z,7.90
2022-11-20T22:23:38.691Z,7.90
2022-11-20T22:26:09.698Z,7.70
2022-11-20T22:28:36.704Z,7.60
2022-11-20T22:31:04.908Z,7.90
2022-11-20T22:33:32.078Z,7.60
2022-11-20T22:36:18.770Z,7.50
2022-11-20T22:38:45.734Z,7.60
2022-11-20T22:41:28.407Z,7.50
2022-11-20T22:43:56.724Z,7.40
2022-11-20T22:46:23.750Z,7.40
2022-11-20T22:49:01.245Z,7.60
2022-11-20T22:51:32.852Z,7.90
2022-11-20T22:54:00.039Z,8.10
2022-11-20T22:56:26.927Z,8.00
2022-11-20T22:58:54.016Z,8.10
2022-11-20T23:01:25.565Z,8.10
2022-11-20T23:03:59.846Z,8.00
2022-11-20T23:06:26.951Z,8.10
2022-11-20T23:08:53.917Z,8.20
2022-11-20T23:11:22.582Z,8.10
2022-11-20T23:13:57.944Z,8.00
2022-11-20T23:16:26.250Z,7.90
2022-11-20T23:18:57.430Z,7.70
2022-11-20T23:21:24.318Z,8.10
2022-11-20T23:23:52.467Z,8.30
2022-11-20T23:26:20.386Z,8.30
2022-11-20T23:28:47.211Z,8.30
2022-11-20T23:31:14.828Z,8.40
2022-11-20T23:33:42.873Z,8.50
2022-11-20T23:36:09.822Z,8.50
2022-11-20T23:38:36.721Z,8.40
2022-11-20T23:41:03.850Z,8.40
2022-11-20T23:43:30.754Z,8.50
2022-11-20T23:45:58.804Z,8.50
2022-11-20T23:48:27.550Z,8.50
2022-11-20T23:50:54.525Z,8.40
2022-11-20T23:53:22.119Z,8.40
2022-11-20T23:55:50.251Z,8.50
2022-11-20T23:58:17.298Z,8.40
